createdAt,value
2019-04-20T00:00:50.945Z,47.01
2019-04-20T00:03:15.922Z,46.35
2019-04-20T00:05:45.508Z,47.28
2019-04-20T00:08:20.075Z,45.83
2019-04-20T00:10:54.328Z,44.39
2019-04-20T00:13:24.496Z,44.36
2019-04-20T00:15:45.092Z,44.21
2019-04-20T00:18:14.864Z,44.05
2019-04-20T00:20:51.427Z,44.59
2019-04-20T00:23:40.455Z,44.79
2019-04-20T00:27:04.435Z,45.23
2019-04-20T00:29:21.638Z,45.92
2019-04-20T00:31:45.461Z,47.05
2019-04-20T00:34:14.084Z,47.01
2019-04-20T00:36:36.964Z,47.35
2019-04-20T00:39:10.877Z,48.03
2019-04-20T00:41:44.159Z,48.47
2019-04-20T00:44:13.381Z,48.71
2019-04-20T00:46:53.443Z,49.71
2019-04-20T00:49:27.727Z,49.76
2019-04-20T00:52:07.612Z,49.05
2019-04-20T00:54:09.521Z,50.18
2019-04-20T00:56:39.185Z,50.85
2019-04-20T00:59:20.740Z,50.80
2019-04-20T01:02:00.839Z,51.51
2019-04-20T01:04:23.897Z,52.39
2019-04-20T01:07:11.342Z,52.70
2019-04-20T01:10:05.121Z,51.87
2019-04-20T01:12:36.598Z,51.64
2019-04-20T01:15:09.913Z,51.78
2019-04-20T01:17:37.768Z,53.02
2019-04-20T01:20:06.806Z,53.90
2019-04-20T01:22:40.297Z,54.32
2019-04-20T01:25:14.175Z,53.45
2019-04-20T01:27:50.118Z,52.91
2019-04-20T01:30:20.057Z,52.66
2019-04-20T01:32:55.372Z,53.00
2019-04-20T01:35:26.056Z,52.76
2019-04-20T01:37:57.508Z,53.75
2019-04-20T01:40:11.317Z,53.87
2019-04-20T01:42:40.381Z,53.79
2019-04-20T01:45:16.798Z,54.83
2019-04-20T01:47:45.809Z,54.93
2019-04-20T01:50:14.212Z,55.17
2019-04-20T01:52:51.754Z,55.60
2019-04-20T01:55:33.316Z,55.70
2019-04-20T01:58:22.519Z,55.71
2019-04-20T02:00:46.937Z,55.66
2019-04-20T02:03:38.374Z,56.80
2019-04-20T02:06:10.539Z,58.09
2019-04-20T02:08:35.732Z,57.03
2019-04-20T02:11:07.350Z,57.26
2019-04-20T02:13:43.667Z,57.44
2019-04-20T02:16:15.831Z,57.49
2019-04-20T02:18:44.228Z,57.12
2019-04-20T02:21:25.869Z,56.42
2019-04-20T02:23:47.416Z,56.73
2019-04-20T02:26:07.031Z,57.53
2019-04-20T02:29:03.300Z,57.61
2019-04-20T02:31:44.513Z,57.63
2019-04-20T02:35:01.595Z,55.88
2019-04-20T02:47:07.921Z,53.75
2019-04-20T02:52:06.140Z,54.70
2019-04-20T02:57:05.535Z,52.82
2019-04-20T02:59:53.340Z,52.40
2019-04-20T03:01:51.775Z,51.31
2019-04-20T03:04:06.556Z,50.94
2019-04-20T03:06:53.322Z,50.81
2019-04-20T03:09:25.630Z,49.98
2019-04-20T03:14:21.846Z,50.61
2019-04-20T03:16:56.836Z,50.84
2019-04-20T03:19:20.729Z,50.83
2019-04-20T03:22:05.041Z,51.00
2019-04-20T03:24:33.927Z,51.37
2019-04-20T03:27:07.477Z,51.54
2019-04-20T03:30:40.649Z,51.23
2019-04-20T03:35:34.276Z,50.92
2019-04-20T03:37:48.529Z,51.32
2019-04-20T03:40:12.770Z,51.07
2019-04-20T03:42:28.862Z,51.33
2019-04-20T03:45:04.144Z,51.58
2019-04-20T03:47:38.382Z,52.14
2019-04-20T03:50:25.050Z,51.98
2019-04-20T03:52:54.279Z,53.68
2019-04-20T03:55:40.926Z,54.16
2019-04-20T03:58:24.146Z,54.15
2019-04-20T04:00:59.824Z,54.45
2019-04-20T04:03:59.237Z,54.49
2019-04-20T04:06:18.399Z,54.86
2019-04-20T04:08:48.606Z,55.33
2019-04-20T04:11:22.713Z,55.37
2019-04-20T04:13:37.781Z,56.38
2019-04-20T04:16:10.201Z,56.68
2019-04-20T04:18:42.026Z,56.61
2019-04-20T04:21:12.650Z,55.11
2019-04-20T04:23:54.294Z,54.94
2019-04-20T04:26:27.441Z,54.79
2019-04-20T04:28:55.974Z,54.87
2019-04-20T04:31:27.562Z,54.35
2019-04-20T04:34:00.829Z,54.42
2019-04-20T04:36:21.226Z,54.85
2019-04-20T04:39:06.397Z,55.55
2019-04-20T04:41:28.222Z,56.00
2019-04-20T04:44:00.632Z,55.22
2019-04-20T04:46:10.217Z,55.10
2019-04-20T04:48:42.718Z,55.31
2019-04-20T04:51:14.875Z,55.08
2019-04-20T04:53:47.798Z,54.58
2019-04-20T04:56:13.180Z,54.63
2019-04-20T04:58:40.393Z,54.61
2019-04-20T05:01:15.898Z,54.38
2019-04-20T05:04:05.260Z,54.31
2019-04-20T05:06:31.818Z,54.45
2019-04-20T05:08:51.449Z,54.20
2019-04-20T05:11:17.202Z,54.01
2019-04-20T05:13:55.689Z,54.21
2019-04-20T05:16:38.443Z,54.00
2019-04-20T05:19:09.411Z,53.99
2019-04-20T05:22:11.106Z,53.46
2019-04-20T05:24:38.954Z,53.60
2019-04-20T05:27:36.432Z,53.77
2019-04-20T05:29:44.719Z,53.24
2019-04-20T05:32:17.588Z,52.76
2019-04-20T05:35:09.591Z,52.26
2019-04-20T05:37:53.661Z,52.21
2019-04-20T05:40:04.691Z,50.71
2019-04-20T05:42:35.876Z,50.29
2019-04-20T05:45:07.306Z,48.72
2019-04-20T05:47:33.431Z,47.62
2019-04-20T05:50:00.999Z,47.26
2019-04-20T05:52:56.160Z,46.21
2019-04-20T05:55:10.201Z,45.94
2019-04-20T05:57:42.591Z,45.39
2019-04-20T06:00:14.255Z,44.30
2019-04-20T06:02:39.146Z,43.46
2019-04-20T06:05:28.984Z,42.96
2019-04-20T06:07:42.398Z,42.55
2019-04-20T06:10:17.958Z,42.97
2019-04-20T06:12:45.704Z,42.71
2019-04-20T06:15:50.659Z,43.18
2019-04-20T06:18:17.718Z,42.02
2019-04-20T06:21:00.490Z,40.74
2019-04-20T06:26:36.981Z,42.24
2019-04-20T06:28:46.690Z,40.20
2019-04-20T06:31:34.085Z,40.65
2019-04-20T06:34:30.285Z,39.90
2019-04-20T06:36:53.513Z,39.46
2019-04-20T06:39:34.781Z,38.23
2019-04-20T06:42:15.398Z,37.59
2019-04-20T06:44:32.036Z,38.40
2019-04-20T06:47:08.671Z,38.72
2019-04-20T06:49:36.759Z,38.07
2019-04-20T06:52:27.606Z,39.04
2019-04-20T06:55:20.032Z,38.56
2019-04-20T06:57:40.671Z,39.46
2019-04-20T07:02:44.223Z,37.45
2019-04-20T07:05:13.038Z,37.70
2019-04-20T07:07:43.182Z,37.82
2019-04-20T07:12:36.883Z,37.35
2019-04-20T07:15:08.526Z,36.37
2019-04-20T07:17:55.142Z,36.45
2019-04-20T07:20:19.454Z,36.57
2019-04-20T07:23:05.009Z,35.96
2019-04-20T07:25:33.212Z,36.26
2019-04-20T07:28:02.969Z,35.17
2019-04-20T07:30:30.326Z,33.98
2019-04-20T07:33:04.374Z,36.75
2019-04-20T07:35:30.769Z,33.56
2019-04-20T07:38:18.208Z,35.60
2019-04-20T07:42:58.737Z,33.02
2019-04-20T07:45:32.080Z,33.26
2019-04-20T07:48:07.785Z,32.47
2019-04-20T07:50:25.086Z,32.27
2019-04-20T07:52:51.421Z,32.19
2019-04-20T07:55:42.224Z,31.92
2019-04-20T07:57:55.162Z,31.20
2019-04-20T08:00:41.967Z,30.47
2019-04-20T08:03:33.366Z,30.64
2019-04-20T08:06:11.540Z,30.70
2019-04-20T08:08:51.639Z,31.29
2019-04-20T08:11:24.437Z,30.01
2019-04-20T08:13:57.950Z,29.54
2019-04-20T08:16:35.671Z,29.27
2019-04-20T08:18:55.438Z,30.07
2019-04-20T08:21:32.732Z,29.48
2019-04-20T08:23:55.513Z,29.64
2019-04-20T08:26:15.555Z,28.74
2019-04-20T08:28:51.945Z,28.33
2019-04-20T08:31:50.338Z,28.11
2019-04-20T08:34:31.193Z,27.77
2019-04-20T08:36:56.686Z,27.75
2019-04-20T08:39:42.984Z,28.74
2019-04-20T08:42:00.499Z,28.63
2019-04-20T08:47:15.866Z,28.58
2019-04-20T08:49:37.828Z,27.35
2019-04-20T08:54:26.419Z,27.37
2019-04-20T08:56:47.995Z,27.62
2019-04-20T08:59:09.593Z,27.98
2019-04-20T09:01:39.420Z,28.36
2019-04-20T09:04:15.363Z,27.53
2019-04-20T09:06:53.372Z,27.54
2019-04-20T09:09:42.498Z,26.78
2019-04-20T09:12:00.837Z,26.38
2019-04-20T09:14:18.515Z,25.14
2019-04-20T09:16:57.030Z,26.00
2019-04-20T09:19:30.844Z,25.31
2019-04-20T09:22:13.408Z,24.78
2019-04-20T09:24:52.883Z,25.50
2019-04-20T09:27:14.303Z,25.09
2019-04-20T09:29:40.701Z,24.42
2019-04-20T09:32:24.730Z,24.47
2019-04-20T09:34:59.998Z,24.09
2019-04-20T09:37:40.025Z,25.91
2019-04-20T09:40:29.302Z,25.55
2019-04-20T09:42:39.770Z,22.98
2019-04-20T09:45:20.253Z,21.52
2019-04-20T09:47:44.996Z,20.74
2019-04-20T09:50:27.888Z,21.02
2019-04-20T09:52:59.135Z,21.17
2019-04-20T09:55:24.673Z,19.86
2019-04-20T09:57:57.653Z,21.09
2019-04-20T10:00:28.883Z,19.90
2019-04-20T10:02:44.667Z,19.38
2019-04-20T10:05:13.580Z,20.26
2019-04-20T10:07:43.493Z,20.02
2019-04-20T10:10:21.458Z,19.82
2019-04-20T10:12:43.954Z,20.20
2019-04-20T10:15:19.102Z,20.43
2019-04-20T10:17:43.662Z,19.70
2019-04-20T10:20:20.822Z,20.15
2019-04-20T10:22:42.565Z,19.92
2019-04-20T10:25:10.936Z,19.77
2019-04-20T10:27:41.871Z,19.37
2019-04-20T10:30:10.407Z,19.75
2019-04-20T10:32:43.015Z,19.73
2019-04-20T10:35:12.210Z,19.54
2019-04-20T10:37:43.669Z,19.19
2019-04-20T10:40:13.443Z,18.71
2019-04-20T10:42:41.909Z,18.73
2019-04-20T10:45:13.352Z,19.02
2019-04-20T10:47:43.056Z,19.12
2019-04-20T10:50:11.704Z,19.54
2019-04-20T10:52:39.904Z,19.20
2019-04-20T10:55:08.420Z,18.93
2019-04-20T10:57:37.594Z,19.31
2019-04-20T11:00:07.949Z,18.86
2019-04-20T11:02:37.383Z,19.64
2019-04-20T11:05:06.585Z,18.45
2019-04-20T11:07:34.837Z,18.40
2019-04-20T11:10:13.371Z,18.39
2019-04-20T11:12:34.576Z,18.47
2019-04-20T11:15:03.180Z,18.93
2019-04-20T11:17:31.785Z,18.46
2019-04-20T11:20:01.347Z,17.90
2019-04-20T11:22:30.555Z,18.42
2019-04-20T11:24:58.928Z,18.15
2019-04-20T11:27:28.032Z,18.16
2019-04-20T11:29:56.322Z,18.00
2019-04-20T11:32:24.506Z,17.98
2019-04-20T11:34:53.317Z,17.40
2019-04-20T11:37:22.013Z,17.94
2019-04-20T11:39:50.786Z,18.01
2019-04-20T11:42:19.526Z,17.94
2019-04-20T11:44:48.825Z,17.53
2019-04-20T11:47:17.181Z,18.18
2019-04-20T11:49:45.865Z,17.13
2019-04-20T11:52:16.859Z,16.59
2019-04-20T11:54:44.436Z,16.87
2019-04-20T11:57:13.290Z,17.45
2019-04-20T11:59:41.625Z,16.44
2019-04-20T12:02:40.439Z,17.10
2019-04-20T12:05:21.085Z,16.92
2019-04-20T12:07:53.484Z,17.44
2019-04-20T12:10:23.991Z,17.80
2019-04-20T12:12:55.404Z,17.08
2019-04-20T12:15:22.511Z,17.90
2019-04-20T12:17:51.515Z,17.65
2019-04-20T12:20:20.879Z,17.77
2019-04-20T12:22:50.455Z,18.41
2019-04-20T12:25:18.846Z,18.03
2019-04-20T12:27:51.138Z,17.82
2019-04-20T12:30:17.813Z,17.99
2019-04-20T12:32:51.926Z,17.97
2019-04-20T12:35:16.497Z,18.94
2019-04-20T12:37:45.099Z,18.45
2019-04-20T12:40:16.318Z,18.32
2019-04-20T12:42:46.647Z,19.00
2019-04-20T12:45:17.860Z,19.00
2019-04-20T12:47:47.937Z,18.35
2019-04-20T12:50:17.357Z,18.55
2019-04-20T12:52:46.219Z,18.76
2019-04-20T12:55:16.583Z,18.74
2019-04-20T12:57:45.260Z,18.82
2019-04-20T13:00:17.395Z,19.04
2019-04-20T13:02:45.656Z,18.28
2019-04-20T13:05:15.403Z,18.81
2019-04-20T13:07:49.726Z,18.74
2019-04-20T13:10:16.041Z,18.40
2019-04-20T13:13:04.651Z,18.47
2019-04-20T13:15:56.307Z,18.00
2019-04-20T13:18:36.971Z,18.50
2019-04-20T13:21:05.319Z,18.41
2019-04-20T13:23:35.092Z,18.60
2019-04-20T13:26:05.853Z,18.93
2019-04-20T13:28:34.716Z,19.05
2019-04-20T13:31:03.962Z,18.79
2019-04-20T13:33:33.586Z,18.33
2019-04-20T13:36:02.131Z,18.74
2019-04-20T13:38:30.447Z,18.53
2019-04-20T13:40:59.856Z,18.66
2019-04-20T13:43:28.157Z,18.45
2019-04-20T13:45:57.213Z,18.25
2019-04-20T13:48:26.724Z,18.32
2019-04-20T13:50:56.071Z,18.46
2019-04-20T13:53:25.338Z,19.29
2019-04-20T13:55:54.351Z,19.39
2019-04-20T13:58:40.967Z,19.63
2019-04-20T14:01:32.690Z,19.53
2019-04-20T14:04:08.633Z,19.87
2019-04-20T14:06:37.340Z,19.94
2019-04-20T14:09:07.612Z,19.87
2019-04-20T14:11:36.111Z,19.62
2019-04-20T14:14:06.464Z,19.90
2019-04-20T14:16:34.834Z,20.19
2019-04-20T14:19:03.240Z,20.19
2019-04-20T14:21:32.188Z,20.02
2019-04-20T14:24:01.309Z,20.02
2019-04-20T14:26:30.669Z,19.78
2019-04-20T14:28:59.001Z,19.92
2019-04-20T14:31:28.005Z,20.26
2019-04-20T14:33:57.199Z,19.89
2019-04-20T14:36:26.545Z,19.64
2019-04-20T14:38:56.084Z,20.51
2019-04-20T14:41:24.414Z,20.07
2019-04-20T14:43:55.139Z,20.46
2019-04-20T14:46:26.291Z,20.84
2019-04-20T14:48:54.789Z,21.30
2019-04-20T14:51:23.744Z,21.42
2019-04-20T14:53:53.784Z,21.35
2019-04-20T14:56:23.406Z,21.33
2019-04-20T14:59:05.241Z,21.07
2019-04-20T15:01:48.175Z,21.22
2019-04-20T15:04:19.597Z,21.50
2019-04-20T15:06:46.688Z,21.73
2019-04-20T15:09:14.932Z,22.26
2019-04-20T15:11:45.209Z,22.65
2019-04-20T15:14:14.430Z,22.60
2019-04-20T15:16:42.867Z,22.62
2019-04-20T15:19:43.360Z,22.70
2019-04-20T15:22:31.551Z,22.86
2019-04-20T15:25:00.065Z,23.12
2019-04-20T15:27:28.588Z,23.21
2019-04-20T15:29:57.924Z,22.94
2019-04-20T15:32:27.100Z,23.06
2019-04-20T15:34:55.400Z,23.35
2019-04-20T15:37:23.609Z,23.49
2019-04-20T15:39:52.821Z,23.42
2019-04-20T15:42:21.300Z,23.62
2019-04-20T15:44:49.739Z,23.42
2019-04-20T15:47:17.979Z,23.21
2019-04-20T15:49:46.313Z,23.68
2019-04-20T15:52:22.097Z,23.43
2019-04-20T15:54:45.526Z,23.38
2019-04-20T15:57:18.392Z,23.89
2019-04-20T15:59:44.494Z,24.28
2019-04-20T16:02:29.353Z,24.61
2019-04-20T16:05:04.042Z,25.03
2019-04-20T16:07:39.097Z,25.24
2019-04-20T16:10:03.312Z,25.35
2019-04-20T16:12:33.009Z,25.92
2019-04-20T16:15:02.057Z,26.40
2019-04-20T16:17:36.855Z,26.64
2019-04-20T16:20:07.952Z,26.43
2019-04-20T16:22:31.048Z,26.08
2019-04-20T16:25:05.515Z,26.36
2019-04-20T16:27:36.023Z,26.80
2019-04-20T16:30:07.543Z,26.71
2019-04-20T16:32:36.612Z,27.05
2019-04-20T16:35:08.586Z,26.95
2019-04-20T16:37:38.259Z,27.50
2019-04-20T16:40:07.968Z,26.81
2019-04-20T16:42:39.272Z,27.23
2019-04-20T16:45:07.403Z,26.79
2019-04-20T16:47:36.561Z,26.29
2019-04-20T16:50:06.795Z,26.65
2019-04-20T16:52:36.760Z,26.76
2019-04-20T16:55:06.446Z,26.92
2019-04-20T16:57:35.054Z,27.06
2019-04-20T17:00:05.350Z,26.92
2019-04-20T17:02:34.059Z,27.25
2019-04-20T17:05:03.108Z,27.56
2019-04-20T17:07:37.363Z,27.14
2019-04-20T17:10:07.506Z,27.03
2019-04-20T17:12:37.518Z,27.29
2019-04-20T17:15:11.651Z,27.45
2019-04-20T17:17:40.061Z,27.51
2019-04-20T17:20:11.438Z,27.80
2019-04-20T17:22:40.254Z,27.97
2019-04-20T17:25:10.112Z,28.43
2019-04-20T17:28:04.699Z,27.97
2019-04-20T17:30:59.176Z,27.85
2019-04-20T17:33:36.274Z,28.37
2019-04-20T17:36:11.004Z,28.81
2019-04-20T17:38:37.514Z,28.65
2019-04-20T17:41:16.695Z,28.88
2019-04-20T17:43:50.710Z,28.88
2019-04-20T17:46:11.930Z,29.16
2019-04-20T17:48:45.077Z,29.43
2019-04-20T17:51:23.497Z,29.33
2019-04-20T17:54:06.836Z,29.51
2019-04-20T17:56:36.289Z,29.84
2019-04-20T17:59:06.058Z,29.89
2019-04-20T18:02:25.542Z,29.67
2019-04-20T18:05:26.881Z,29.90
2019-04-20T18:07:52.468Z,30.18
2019-04-20T18:10:26.250Z,29.87
2019-04-20T18:12:44.016Z,30.58
2019-04-20T18:15:29.374Z,30.66
2019-04-20T18:18:18.749Z,30.97
2019-04-20T18:21:01.122Z,31.03
2019-04-20T18:23:36.358Z,31.26
2019-04-20T18:26:22.744Z,31.54
2019-04-20T18:28:51.650Z,31.92
2019-04-20T18:31:19.601Z,31.99
2019-04-20T18:33:50.564Z,32.09
2019-04-20T18:36:27.286Z,32.38
2019-04-20T18:38:57.497Z,32.62
2019-04-20T18:41:30.922Z,32.82
2019-04-20T18:43:54.035Z,33.03
2019-04-20T18:46:44.034Z,33.03
2019-04-20T18:49:10.226Z,33.07
2019-04-20T18:51:21.762Z,33.08
2019-04-20T18:53:53.539Z,33.22
2019-04-20T18:56:27.927Z,33.84
2019-04-20T18:58:53.420Z,34.05
2019-04-20T19:01:29.414Z,33.95
2019-04-20T19:03:52.352Z,34.35
2019-04-20T19:06:21.257Z,35.04
2019-04-20T19:08:51.873Z,35.28
2019-04-20T19:11:21.722Z,35.49
2019-04-20T19:14:16.404Z,35.61
2019-04-20T19:16:52.430Z,35.87
2019-04-20T19:19:24.540Z,36.15
2019-04-20T19:21:46.181Z,36.28
2019-04-20T19:24:16.887Z,35.83
2019-04-20T19:26:50.846Z,35.83
2019-04-20T19:29:24.307Z,35.95
2019-04-20T19:32:07.336Z,36.11
2019-04-20T19:34:35.406Z,35.79
2019-04-20T19:36:59.117Z,36.28
2019-04-20T19:39:29.962Z,36.37
2019-04-20T19:41:54.027Z,36.70
2019-04-20T19:44:28.870Z,36.27
2019-04-20T19:47:05.236Z,35.89
2019-04-20T19:49:25.376Z,35.63
2019-04-20T19:52:18.983Z,35.69
2019-04-20T19:54:43.000Z,36.17
2019-04-20T19:57:01.286Z,34.94
2019-04-20T19:59:26.104Z,35.38
2019-04-20T20:01:47.725Z,35.01
2019-04-20T20:04:17.463Z,34.85
2019-04-20T20:06:51.806Z,35.24
2019-04-20T20:09:17.798Z,35.15
2019-04-20T20:11:46.737Z,35.05
2019-04-20T20:14:18.031Z,35.31
2019-04-20T20:17:02.674Z,35.55
2019-04-20T20:19:32.825Z,35.69
2019-04-20T20:21:59.066Z,35.66
2019-04-20T20:24:18.043Z,35.88
2019-04-20T20:26:55.756Z,35.55
2019-04-20T20:29:27.473Z,35.01
2019-04-20T20:32:03.643Z,35.11
2019-04-20T20:34:28.017Z,35.18
2019-04-20T20:36:54.928Z,35.23
2019-04-20T20:39:24.242Z,35.39
2019-04-20T20:42:04.958Z,34.97
2019-04-20T20:44:33.117Z,35.60
2019-04-20T20:46:59.231Z,35.34
2019-04-20T20:49:40.267Z,34.90
2019-04-20T20:52:13.329Z,35.10
2019-04-20T20:54:33.678Z,35.54
2019-04-20T20:57:01.461Z,35.07
2019-04-20T20:59:34.751Z,34.69
2019-04-20T21:02:04.801Z,35.03
2019-04-20T21:04:23.867Z,35.29
2019-04-20T21:06:52.806Z,35.46
2019-04-20T21:09:24.148Z,35.27
2019-04-20T21:12:02.377Z,35.42
2019-04-20T21:14:27.164Z,35.13
2019-04-20T21:17:02.992Z,35.34
2019-04-20T21:19:43.066Z,35.01
2019-04-20T21:21:59.855Z,35.29
2019-04-20T21:24:30.432Z,35.02
2019-04-20T21:27:00.681Z,35.30
2019-04-20T21:29:35.897Z,35.65
2019-04-20T21:32:05.082Z,35.73
2019-04-20T21:34:29.446Z,35.57
2019-04-20T21:37:03.502Z,35.64
2019-04-20T21:39:38.946Z,35.81
2019-04-20T21:42:05.442Z,36.16
2019-04-20T21:44:35.102Z,36.12
2019-04-20T21:47:01.374Z,36.31
2019-04-20T21:49:42.245Z,36.89
2019-04-20T21:52:03.671Z,37.11
2019-04-20T21:54:29.842Z,37.31
2019-04-20T21:57:03.134Z,37.24
2019-04-20T21:59:37.194Z,37.41
2019-04-20T22:02:06.518Z,37.81
2019-04-20T22:04:29.728Z,38.10
2019-04-20T22:06:58.299Z,38.15
2019-04-20T22:09:36.684Z,38.28
2019-04-20T22:11:58.112Z,38.30
2019-04-20T22:14:28.450Z,38.38
2019-04-20T22:17:00.057Z,38.61
2019-04-20T22:19:38.756Z,39.10
2019-04-20T22:22:05.562Z,39.07
2019-04-20T22:24:42.464Z,39.10
2019-04-20T22:27:06.480Z,39.78
2019-04-20T22:29:30.105Z,40.18
2019-04-20T22:32:03.948Z,40.25
2019-04-20T22:34:30.178Z,40.90
2019-04-20T22:36:59.918Z,40.69
2019-04-20T22:39:39.864Z,40.72
2019-04-20T22:42:07.341Z,41.16
2019-04-20T22:44:34.820Z,41.23
2019-04-20T22:47:05.364Z,41.92
2019-04-20T22:49:48.177Z,42.79
2019-04-20T22:52:18.563Z,43.87
2019-04-20T22:54:48.949Z,45.20
2019-04-20T22:57:19.333Z,45.41
2019-04-20T22:59:44.677Z,46.37
2019-04-20T23:02:07.609Z,47.02
2019-04-20T23:04:35.215Z,47.66
2019-04-20T23:07:05.052Z,49.54
2019-04-20T23:09:39.471Z,49.09
2019-04-20T23:12:09.641Z,49.89
2019-04-20T23:14:34.301Z,49.92
2019-04-20T23:17:04.114Z,49.95
2019-04-20T23:19:41.581Z,50.43
2019-04-20T23:22:05.364Z,48.88
2019-04-20T23:24:33.297Z,50.34
2019-04-20T23:27:04.467Z,50.79
2019-04-20T23:29:38.026Z,52.07
2019-04-20T23:32:07.703Z,52.44
2019-04-20T23:34:34.582Z,52.37
2019-04-20T23:37:08.760Z,53.16
2019-04-20T23:39:37.336Z,51.51
2019-04-20T23:42:08.942Z,51.96
2019-04-20T23:44:52.107Z,52.05
2019-04-20T23:47:45.466Z,52.16
2019-04-20T23:50:30.545Z,53.05
2019-04-20T23:53:01.381Z,52.96
2019-04-20T23:55:13.431Z,53.22
2019-04-20T23:57:41.941Z,53.75
